Minot Air Force Base
KMIB : now visible

Airfield :











YOU CAN JOIN US ON...

 
LOGIN :

Register | Disclaimer

   EN    FR    IT 

 









Legend :    VFR   Marginal VFR   IFR   Intensive IFR   Very Intensive IFR
Visi :
Ceiling :
>= 8 km
>= 3000ft
5 to 8 km
1000 to 3000 ft
1500m to 5 km
500 to 1000 ft
800 to 1500m
200 to 500 ft
< 800m
< 200 ft
Symbols :   Thunderstorms  Fog  Heavy snow  Heavy precipitations  Wind > 20 kt






- Airport Elevation : 1667 ft


KMIB - Minot Air Force Base

CURRENT METAR :
  • 141132Z 02008KT 5SM -SN OVC013 M06/M07 A3035 RMK AO2A SLP312 $

EXPIRED METARs :
  • 141117Z 02009KT 10SM BKN021 OVC034 M06/M07 A3034 RMK AO2A SLP308 $
  • 141056Z 01009KT 5SM -SN BKN035 OVC055 M06/M07 A3035 RMK SLP312 P0000 T10571068 $
  • 140956Z 02010KT 4SM -SN OVC0021 M06/M07 A3034 RMK AO2A SLP308 P0000 T10581070 $
  • 140856Z 02008KT 4SM -SN BKN021 BKN035 OVC046 M06/M07 A3033 RMK AO2A SLP305 P0000 60000 T10581070 51007 $

TAF AMD TAF KMIB
Valid from the 14 at 11:00 until the 15 at 15:00 UTC


141121Z 1411/1515 01009KT 9999 BKN015 620155 QNH3035INS
BECMG 1412/1413 01012KT 4800 -SN OVC020 620205 QNH3033INS
BECMG 1419/1420 35009KT 9999 NSW OVC020 620205 QNH3034INS
BECMG 1506/1507 VRB06KT 9999 OVC020 620205 QNH3030INS
BECMG 1510/1511 VRB06KT 8000 -SN OVC010 620105 QNH3027INS TXM01/1420Z TNM07/1411Z
KZMP FIR / North America



MET'MAP, your aeronautical weather chart ! - Copyright ORBIFLY December 2007 - Disclaimer

ORBIFLY MET'MAP TEAM :

Programming & Development : Alexandra Zaïnal
Concept & original design : Baudouin d'Aumeries
Assistance for programming : Marc-Olivier Méhu
Technical & hardware support : Manuel Goepfert

Contact : metmap@orbifly.com




SOURCES & CREDITS :

   NOAA       Earth
Advisory